createdAt,value
2023-05-10T00:02:04.058Z,75.42
2023-05-10T00:04:31.891Z,73.92
2023-05-10T00:06:59.739Z,74.92
2023-05-10T00:09:27.595Z,75.01
2023-05-10T00:11:55.459Z,74.59
2023-05-10T00:14:23.427Z,75.95
2023-05-10T00:16:51.489Z,78.66
2023-05-10T00:19:19.666Z,77.80
2023-05-10T00:21:47.685Z,76.11
2023-05-10T00:24:15.561Z,76.11
2023-05-10T00:26:43.506Z,76.48
2023-05-10T00:29:11.503Z,78.29
2023-05-10T00:31:39.373Z,77.33
2023-05-10T00:34:07.258Z,75.91
2023-05-10T00:36:35.021Z,75.70
2023-05-10T00:39:04.671Z,77.31
2023-05-10T00:41:35.300Z,76.35
2023-05-10T00:44:05.297Z,75.85
2023-05-10T00:46:33.605Z,74.51
2023-05-10T00:49:01.677Z,73.67
2023-05-10T00:51:32.424Z,72.71
2023-05-10T00:54:00.833Z,72.02
2023-05-10T00:56:30.754Z,73.22
2023-05-10T00:58:58.943Z,73.05
2023-05-10T01:01:26.992Z,73.23
2023-05-10T01:03:56.555Z,73.57
2023-05-10T01:06:24.481Z,73.83
2023-05-10T01:08:53.624Z,72.44
2023-05-10T01:11:22.380Z,72.47
2023-05-10T01:13:57.637Z,73.41
2023-05-10T01:16:28.043Z,72.05
2023-05-10T01:18:56.455Z,72.25
2023-05-10T01:21:33.609Z,74.55
2023-05-10T01:24:10.557Z,72.15
2023-05-10T01:27:00.219Z,72.31
2023-05-10T01:29:46.416Z,72.69
2023-05-10T01:32:32.867Z,71.21
2023-05-10T01:35:21.293Z,71.84
2023-05-10T01:38:14.814Z,71.36
2023-05-10T01:41:00.764Z,70.09
2023-05-10T01:43:34.572Z,71.04
2023-05-10T01:46:11.712Z,71.28
2023-05-10T01:48:48.064Z,71.25
2023-05-10T01:51:23.045Z,72.02
2023-05-10T01:53:52.888Z,71.78
2023-05-10T01:56:25.538Z,71.31
2023-05-10T01:58:55.810Z,74.86
2023-05-10T02:01:25.173Z,74.19
2023-05-10T02:03:53.583Z,74.39
2023-05-10T02:06:23.376Z,75.22
2023-05-10T02:08:52.784Z,74.95
2023-05-10T02:11:22.131Z,77.02
2023-05-10T02:13:52.852Z,76.22
2023-05-10T02:16:25.098Z,77.62
2023-05-10T02:18:54.189Z,78.47
2023-05-10T02:21:23.274Z,79.58
2023-05-10T02:23:53.414Z,82.04
2023-05-10T02:26:25.070Z,81.35
2023-05-10T02:28:56.001Z,82.37
2023-05-10T02:31:24.507Z,85.69
2023-05-10T02:33:53.776Z,86.85
2023-05-10T02:36:23.426Z,87.33
2023-05-10T02:38:54.256Z,89.23
2023-05-10T02:41:24.022Z,90.00
2023-05-10T02:43:54.750Z,91.32
2023-05-10T02:46:22.706Z,92.58
2023-05-10T02:48:50.588Z,91.66
2023-05-10T02:51:20.890Z,94.44
2023-05-10T02:53:52.165Z,92.01
2023-05-10T02:56:37.740Z,92.45
2023-05-10T02:59:06.159Z,96.30
2023-05-10T03:01:34.311Z,96.61
2023-05-10T03:04:02.244Z,98.37
2023-05-10T03:06:30.347Z,100.00
2023-05-10T03:08:58.721Z,100.00
2023-05-10T03:11:33.613Z,100.00
2023-05-10T03:14:18.598Z,99.21
2023-05-10T03:17:04.756Z,100.00
2023-05-10T03:19:44.476Z,100.00
2023-05-10T03:22:20.800Z,100.00
2023-05-10T03:24:50.977Z,100.00
2023-05-10T03:27:19.990Z,100.00
2023-05-10T03:29:48.236Z,100.00
2023-05-10T03:32:16.679Z,100.00
2023-05-10T03:34:44.618Z,100.00
2023-05-10T03:37:12.607Z,100.00
2023-05-10T03:39:40.883Z,100.00
2023-05-10T03:42:13.059Z,100.00
2023-05-10T03:44:41.299Z,100.00
2023-05-10T03:47:10.330Z,100.00
2023-05-10T03:49:38.381Z,100.00
2023-05-10T03:52:06.534Z,100.00
2023-05-10T03:54:34.477Z,100.00
2023-05-10T03:57:02.431Z,100.00
2023-05-10T03:59:31.565Z,100.00
2023-05-10T04:01:59.601Z,100.00
2023-05-10T04:04:27.478Z,100.00
2023-05-10T04:06:56.076Z,100.00
2023-05-10T04:09:23.874Z,100.00
2023-05-10T04:11:51.838Z,100.00
2023-05-10T04:14:19.760Z,100.00
2023-05-10T04:16:47.724Z,100.00
2023-05-10T04:19:15.690Z,100.00
2023-05-10T04:21:43.655Z,100.00
2023-05-10T04:24:13.061Z,100.00
2023-05-10T04:26:41.443Z,100.00
2023-05-10T04:29:10.728Z,100.00
2023-05-10T04:31:38.727Z,100.00
2023-05-10T04:34:06.875Z,100.00
2023-05-10T04:36:36.928Z,100.00
2023-05-10T04:39:05.440Z,100.00
2023-05-10T04:41:33.292Z,100.00
2023-05-10T04:44:01.268Z,100.00
2023-05-10T04:46:29.248Z,100.00
2023-05-10T04:48:57.071Z,100.00
2023-05-10T04:51:25.006Z,100.00
2023-05-10T04:54:05.090Z,100.00
2023-05-10T04:56:34.754Z,100.00
2023-05-10T04:59:03.078Z,100.00
2023-05-10T05:01:31.233Z,100.00
2023-05-10T05:03:59.788Z,100.00
2023-05-10T05:06:28.450Z,100.00
2023-05-10T05:08:56.336Z,100.00
2023-05-10T05:11:24.356Z,100.00
2023-05-10T05:13:52.849Z,100.00
2023-05-10T05:16:20.718Z,100.00
2023-05-10T05:18:48.907Z,100.00
2023-05-10T05:21:18.416Z,100.00
2023-05-10T05:23:46.752Z,100.00
2023-05-10T05:26:16.041Z,100.00
2023-05-10T05:28:44.211Z,98.22
2023-05-10T05:31:12.419Z,98.90
2023-05-10T05:33:41.270Z,97.10
2023-05-10T05:36:09.334Z,95.91
2023-05-10T05:38:37.189Z,98.16
2023-05-10T05:41:05.128Z,95.97
2023-05-10T05:43:32.922Z,95.71
2023-05-10T05:46:00.911Z,95.51
2023-05-10T05:48:30.592Z,96.96
2023-05-10T05:50:58.877Z,97.89
2023-05-10T05:53:26.966Z,98.10
2023-05-10T05:55:59.464Z,97.09
2023-05-10T05:58:28.115Z,95.95
2023-05-10T06:00:55.950Z,96.72
2023-05-10T06:03:23.960Z,96.47
2023-05-10T06:05:51.982Z,95.34
2023-05-10T06:08:19.890Z,97.42
2023-05-10T06:10:47.758Z,95.22
2023-05-10T06:13:15.810Z,97.91
2023-05-10T06:15:43.718Z,97.00
2023-05-10T06:18:11.641Z,95.11
2023-05-10T06:20:39.631Z,95.79
2023-05-10T06:23:07.471Z,94.67
2023-05-10T06:25:35.358Z,93.98
2023-05-10T06:28:03.189Z,93.93
2023-05-10T06:30:31.188Z,93.10
2023-05-10T06:32:59.248Z,91.76
2023-05-10T06:35:27.242Z,92.26
2023-05-10T06:37:55.596Z,91.74
2023-05-10T06:40:23.482Z,92.95
2023-05-10T06:42:51.525Z,93.85
2023-05-10T06:45:19.568Z,92.33
2023-05-10T06:47:47.860Z,92.12
2023-05-10T06:50:16.270Z,91.86
2023-05-10T06:52:44.639Z,91.38
2023-05-10T06:55:12.638Z,92.31
2023-05-10T06:57:40.667Z,92.11
2023-05-10T07:00:10.761Z,92.30
2023-05-10T07:02:38.921Z,92.44
2023-05-10T07:05:07.567Z,92.10
2023-05-10T07:07:35.751Z,93.94
2023-05-10T07:10:03.985Z,93.31
2023-05-10T07:12:31.986Z,94.59
2023-05-10T07:14:59.991Z,95.41
2023-05-10T07:17:27.869Z,94.15
2023-05-10T07:19:55.819Z,94.46
2023-05-10T07:22:24.032Z,93.69
2023-05-10T07:24:51.913Z,93.72
2023-05-10T07:27:19.754Z,92.62
2023-05-10T07:29:47.640Z,94.37
2023-05-10T07:32:15.724Z,93.27
2023-05-10T07:34:43.774Z,93.33
2023-05-10T07:37:11.563Z,95.11
2023-05-10T07:39:39.487Z,94.60
2023-05-10T07:42:07.465Z,95.37
2023-05-10T07:44:35.362Z,95.74
2023-05-10T07:47:03.167Z,95.39
2023-05-10T07:49:31.095Z,94.41
2023-05-10T07:51:59.056Z,94.97
2023-05-10T07:54:27.132Z,97.95
2023-05-10T07:56:55.007Z,95.81
2023-05-10T07:59:22.958Z,97.45
2023-05-10T08:01:50.968Z,97.39
2023-05-10T08:04:18.816Z,96.27
2023-05-10T08:06:46.725Z,96.88
2023-05-10T08:09:14.740Z,96.38
2023-05-10T08:11:42.595Z,97.02
2023-05-10T08:14:10.501Z,96.01
2023-05-10T08:16:38.528Z,97.80
2023-05-10T08:19:06.481Z,97.37
2023-05-10T08:21:34.629Z,98.99
2023-05-10T08:24:02.989Z,99.67
2023-05-10T08:26:31.835Z,98.79
2023-05-10T08:28:59.801Z,98.26
2023-05-10T08:31:27.889Z,98.31
2023-05-10T08:33:56.039Z,97.21
2023-05-10T08:36:25.531Z,99.43
2023-05-10T08:38:53.799Z,100.00
2023-05-10T08:41:22.981Z,99.23
2023-05-10T08:43:52.197Z,97.67
2023-05-10T08:46:21.236Z,99.79
2023-05-10T08:48:51.738Z,100.00
2023-05-10T08:51:23.403Z,100.00
2023-05-10T08:53:51.646Z,100.00
2023-05-10T08:56:21.434Z,100.00
2023-05-10T08:58:50.836Z,100.00
2023-05-10T09:01:19.740Z,100.00
2023-05-10T09:03:48.714Z,98.72
2023-05-10T09:06:16.942Z,99.65
2023-05-10T09:08:45.973Z,98.69
2023-05-10T09:11:14.466Z,99.34
2023-05-10T09:13:43.657Z,99.54
2023-05-10T09:16:21.404Z,99.07
2023-05-10T09:18:50.843Z,96.84
2023-05-10T09:21:20.474Z,96.09
2023-05-10T09:23:51.324Z,97.67
2023-05-10T09:26:23.809Z,95.43
2023-05-10T09:28:53.721Z,97.10
2023-05-10T09:31:21.817Z,96.47
2023-05-10T09:33:50.921Z,96.30
2023-05-10T09:36:19.006Z,96.79
2023-05-10T09:38:52.984Z,96.54
2023-05-10T09:41:23.033Z,98.64
2023-05-10T09:43:51.405Z,97.06
2023-05-10T09:46:19.316Z,95.31
2023-05-10T09:48:48.863Z,96.41
2023-05-10T09:51:21.613Z,95.79
2023-05-10T09:53:51.733Z,95.37
2023-05-10T09:56:37.033Z,94.85
2023-05-10T09:59:05.776Z,93.56
2023-05-10T10:01:34.787Z,93.73
2023-05-10T10:04:08.392Z,93.35
2023-05-10T10:06:40.639Z,93.87
2023-05-10T10:09:09.493Z,91.93
2023-05-10T10:11:38.488Z,91.40
2023-05-10T10:14:06.810Z,93.18
2023-05-10T10:16:35.115Z,93.60
2023-05-10T10:19:03.341Z,92.49
2023-05-10T10:21:32.217Z,93.97
2023-05-10T10:24:00.176Z,94.10
2023-05-10T10:26:28.464Z,93.41
2023-05-10T10:29:08.090Z,93.30
2023-05-10T10:32:14.956Z,93.78
2023-05-10T10:34:42.966Z,94.12
2023-05-10T10:37:11.062Z,94.93
2023-05-10T10:39:38.966Z,94.36
2023-05-10T10:42:06.897Z,97.76
2023-05-10T10:44:39.054Z,95.71
2023-05-10T10:47:13.326Z,97.38
2023-05-10T10:49:41.253Z,97.15
2023-05-10T10:52:32.118Z,97.58
2023-05-10T10:55:00.187Z,96.45
2023-05-10T10:57:31.242Z,95.98
2023-05-10T11:00:22.485Z,96.69
2023-05-10T11:02:54.908Z,95.62
2023-05-10T11:05:37.613Z,94.15
2023-05-10T11:08:17.526Z,90.99
2023-05-10T11:11:00.542Z,93.25
2023-05-10T11:13:32.553Z,91.54
2023-05-10T11:16:15.075Z,92.30
2023-05-10T11:18:54.677Z,94.19
2023-05-10T11:21:22.846Z,94.13
2023-05-10T11:23:53.150Z,94.03
2023-05-10T11:26:24.337Z,95.11
2023-05-10T11:28:56.042Z,94.67
2023-05-10T11:31:25.065Z,96.33
2023-05-10T11:33:55.638Z,98.87
2023-05-10T11:36:28.575Z,97.64
2023-05-10T11:38:57.926Z,97.40
2023-05-10T11:41:27.933Z,97.02
2023-05-10T11:43:57.708Z,98.15
2023-05-10T11:46:28.080Z,97.12
2023-05-10T11:49:02.719Z,100.00
2023-05-10T11:51:31.295Z,98.63
2023-05-10T11:53:59.215Z,97.06
2023-05-10T11:56:27.720Z,99.77
2023-05-10T11:58:57.448Z,100.00
2023-05-10T12:01:27.727Z,100.00
2023-05-10T12:04:01.619Z,100.00
2023-05-10T12:06:32.243Z,100.00
2023-05-10T12:09:00.842Z,100.00
2023-05-10T12:11:29.841Z,97.63
2023-05-10T12:13:57.887Z,98.20
2023-05-10T12:16:29.497Z,98.14
2023-05-10T12:19:00.362Z,97.68
2023-05-10T12:21:31.819Z,97.26
2023-05-10T12:24:04.840Z,97.52
2023-05-10T12:26:33.277Z,98.58
2023-05-10T12:29:17.900Z,98.10
2023-05-10T12:32:00.011Z,97.47
2023-05-10T12:34:40.156Z,98.17
2023-05-10T12:37:08.682Z,99.05
2023-05-10T12:39:44.190Z,98.50
2023-05-10T12:42:12.345Z,97.31
2023-05-10T12:44:41.456Z,97.58
2023-05-10T12:47:09.603Z,98.08
2023-05-10T12:49:37.485Z,100.00
2023-05-10T12:52:05.602Z,100.00
2023-05-10T12:54:33.520Z,100.00
2023-05-10T12:57:01.618Z,100.00
2023-05-10T12:59:29.402Z,100.00
2023-05-10T13:01:58.768Z,99.62
2023-05-10T13:04:26.932Z,100.00
2023-05-10T13:06:59.620Z,100.00
2023-05-10T13:09:30.584Z,100.00
2023-05-10T13:11:58.501Z,100.00
2023-05-10T13:14:26.680Z,100.00
2023-05-10T13:16:55.233Z,100.00
2023-05-10T13:19:23.141Z,100.00
2023-05-10T13:21:51.020Z,100.00
2023-05-10T13:24:18.934Z,100.00
2023-05-10T13:26:47.033Z,100.00
2023-05-10T13:29:14.958Z,100.00
2023-05-10T13:31:42.855Z,100.00
2023-05-10T13:34:10.824Z,100.00
2023-05-10T13:36:39.302Z,100.00
2023-05-10T13:39:07.233Z,100.00
2023-05-10T13:41:35.364Z,100.00
2023-05-10T13:44:03.300Z,99.76
2023-05-10T13:46:32.029Z,99.91
2023-05-10T13:49:00.061Z,98.90
2023-05-10T13:51:28.036Z,100.00
2023-05-10T13:53:55.975Z,100.00
2023-05-10T13:56:23.784Z,100.00
2023-05-10T13:58:51.694Z,100.00
2023-05-10T14:01:19.724Z,100.00
2023-05-10T14:03:47.749Z,100.00
2023-05-10T14:06:15.655Z,100.00
2023-05-10T14:08:43.506Z,99.48
2023-05-10T14:11:11.354Z,98.29
2023-05-10T14:13:39.212Z,98.89
2023-05-10T14:16:07.385Z,98.17
2023-05-10T14:18:35.288Z,97.73
2023-05-10T14:21:04.047Z,100.00
2023-05-10T14:23:32.088Z,100.00
2023-05-10T14:26:00.066Z,100.00
2023-05-10T14:28:28.113Z,99.22
2023-05-10T14:30:55.990Z,99.21
2023-05-10T14:33:23.909Z,98.31
2023-05-10T14:35:52.024Z,99.19
2023-05-10T14:38:21.764Z,98.65
2023-05-10T14:40:50.756Z,99.34
2023-05-10T14:43:18.725Z,100.00
2023-05-10T14:45:48.995Z,100.00
2023-05-10T14:48:18.737Z,100.00
2023-05-10T14:50:47.266Z,100.00
2023-05-10T14:53:15.680Z,100.00
2023-05-10T14:55:43.816Z,100.00
2023-05-10T14:58:12.042Z,100.00
2023-05-10T15:00:42.096Z,100.00
2023-05-10T15:03:10.732Z,100.00
2023-05-10T15:05:39.835Z,100.00
2023-05-10T15:08:07.828Z,100.00
2023-05-10T15:10:36.192Z,100.00
2023-05-10T15:13:05.469Z,100.00
2023-05-10T15:15:33.500Z,100.00
2023-05-10T15:18:01.523Z,100.00
2023-05-10T15:20:29.504Z,100.00
2023-05-10T15:22:57.362Z,100.00
2023-05-10T15:25:27.411Z,100.00
2023-05-10T15:27:55.987Z,100.00
2023-05-10T15:30:23.972Z,100.00
2023-05-10T15:32:51.972Z,100.00
2023-05-10T15:35:20.157Z,100.00
2023-05-10T15:37:49.378Z,100.00
2023-05-10T15:40:17.402Z,100.00
2023-05-10T15:42:45.247Z,100.00
2023-05-10T15:45:13.296Z,100.00
2023-05-10T15:47:41.231Z,100.00
2023-05-10T15:50:10.154Z,100.00
2023-05-10T15:52:42.568Z,100.00
2023-05-10T15:55:14.694Z,100.00
2023-05-10T15:57:44.430Z,100.00
2023-05-10T16:00:13.856Z,100.00
2023-05-10T16:02:42.053Z,100.00
2023-05-10T16:05:10.372Z,100.00
2023-05-10T16:07:38.227Z,100.00
2023-05-10T16:10:07.128Z,100.00
2023-05-10T16:12:35.120Z,100.00
2023-05-10T16:15:03.072Z,100.00
2023-05-10T16:17:31.681Z,100.00
2023-05-10T16:19:59.606Z,100.00
2023-05-10T16:22:28.958Z,100.00
2023-05-10T16:25:00.009Z,100.00
2023-05-10T16:27:30.441Z,100.00
2023-05-10T16:29:58.316Z,100.00
2023-05-10T16:32:26.363Z,100.00
2023-05-10T16:34:54.296Z,100.00
2023-05-10T16:37:22.104Z,100.00
2023-05-10T16:39:49.966Z,100.00
2023-05-10T16:42:18.350Z,100.00
2023-05-10T16:44:46.461Z,100.00
2023-05-10T16:47:14.363Z,100.00
2023-05-10T16:49:42.380Z,100.00
2023-05-10T16:52:10.428Z,100.00
2023-05-10T16:54:38.372Z,100.00
2023-05-10T16:57:06.497Z,100.00
2023-05-10T16:59:34.397Z,100.00
2023-05-10T17:02:02.363Z,100.00
2023-05-10T17:04:30.907Z,100.00
2023-05-10T17:06:58.848Z,100.00
2023-05-10T17:09:26.727Z,100.00
2023-05-10T17:11:54.586Z,100.00
2023-05-10T17:14:22.481Z,100.00
2023-05-10T17:16:52.923Z,100.00
2023-05-10T17:19:23.039Z,100.00
2023-05-10T17:21:52.196Z,100.00
2023-05-10T17:24:20.233Z,100.00
2023-05-10T17:26:48.167Z,100.00
2023-05-10T17:29:16.402Z,100.00
2023-05-10T17:31:44.279Z,100.00
2023-05-10T17:34:12.168Z,100.00
2023-05-10T17:36:40.126Z,100.00
2023-05-10T17:39:07.917Z,100.00
2023-05-10T17:41:35.795Z,100.00
2023-05-10T17:44:03.665Z,100.00
2023-05-10T17:46:31.502Z,100.00
2023-05-10T17:48:59.419Z,100.00
2023-05-10T17:51:27.211Z,100.00
2023-05-10T17:53:55.147Z,100.00
2023-05-10T17:56:23.150Z,100.00
2023-05-10T17:58:51.263Z,100.00
2023-05-10T18:01:19.224Z,100.00
2023-05-10T18:03:49.454Z,100.00
2023-05-10T18:06:17.611Z,100.00
2023-05-10T18:08:45.503Z,100.00
2023-05-10T18:11:13.550Z,100.00
2023-05-10T18:13:41.542Z,100.00
2023-05-10T18:16:12.862Z,100.00
2023-05-10T18:18:41.029Z,100.00
2023-05-10T18:21:08.954Z,100.00
2023-05-10T18:23:36.802Z,100.00
2023-05-10T18:26:04.856Z,100.00
2023-05-10T18:28:32.757Z,100.00
2023-05-10T18:31:01.043Z,100.00
2023-05-10T18:33:29.228Z,100.00
2023-05-10T18:35:57.173Z,100.00
2023-05-10T18:38:26.347Z,100.00
2023-05-10T18:40:54.768Z,100.00
2023-05-10T18:43:22.773Z,100.00
2023-05-10T18:45:51.413Z,100.00
2023-05-10T18:48:19.565Z,100.00
2023-05-10T18:50:49.986Z,100.00
2023-05-10T18:53:21.749Z,100.00
2023-05-10T18:55:58.016Z,100.00
2023-05-10T18:58:30.098Z,100.00
2023-05-10T19:00:59.020Z,100.00
2023-05-10T19:03:29.625Z,100.00
2023-05-10T19:05:59.325Z,100.00
2023-05-10T19:08:27.715Z,100.00
2023-05-10T19:10:56.839Z,100.00
2023-05-10T19:13:24.993Z,100.00
2023-05-10T19:16:07.182Z,100.00
2023-05-10T19:21:46.274Z,100.00
2023-05-10T19:24:14.296Z,100.00
2023-05-10T19:26:43.191Z,100.00
2023-05-10T19:29:16.018Z,100.00
2023-05-10T19:31:45.379Z,100.00
2023-05-10T19:34:15.464Z,100.00
2023-05-10T19:36:44.263Z,100.00
2023-05-10T19:39:15.844Z,100.00
2023-05-10T19:41:43.956Z,100.00
2023-05-10T19:44:12.698Z,100.00
2023-05-10T19:46:41.818Z,100.00
2023-05-10T19:49:10.487Z,100.00
2023-05-10T19:51:38.370Z,100.00
2023-05-10T19:54:06.994Z,100.00
2023-05-10T19:56:35.054Z,100.00
2023-05-10T19:59:04.027Z,100.00
2023-05-10T20:01:33.082Z,100.00
2023-05-10T20:04:11.135Z,100.00
2023-05-10T20:06:41.085Z,100.00
2023-05-10T20:09:10.315Z,100.00
2023-05-10T20:11:40.138Z,100.00
2023-05-10T22:02:41.262Z,100.00
2023-05-10T22:05:09.712Z,100.00
2023-05-10T22:07:37.428Z,100.00
2023-05-10T22:10:05.866Z,100.00
2023-05-10T22:12:33.558Z,100.00
2023-05-10T22:15:10.522Z,100.00
2023-05-10T22:17:40.161Z,100.00
2023-05-10T22:20:08.863Z,100.00
2023-05-10T22:22:36.945Z,100.00
2023-05-10T22:25:07.504Z,100.00
2023-05-10T22:27:35.533Z,100.00
2023-05-10T22:30:04.299Z,100.00
2023-05-10T22:32:34.301Z,100.00
2023-05-10T22:35:02.494Z,100.00
2023-05-10T22:37:30.203Z,100.00
2023-05-10T22:39:57.970Z,100.00
2023-05-10T22:42:26.030Z,100.00
2023-05-10T22:44:53.771Z,100.00
2023-05-10T22:47:21.535Z,100.00
2023-05-10T22:49:49.188Z,100.00
2023-05-10T22:52:16.911Z,100.00
2023-05-10T22:54:44.597Z,100.00
2023-05-10T22:57:12.655Z,100.00
2023-05-10T22:59:41.009Z,100.00
2023-05-10T23:02:09.125Z,100.00
2023-05-10T23:04:37.167Z,100.00
2023-05-10T23:07:05.284Z,100.00
2023-05-10T23:09:33.229Z,100.00
2023-05-10T23:12:01.596Z,100.00
2023-05-10T23:14:30.426Z,100.00
2023-05-10T23:16:58.674Z,100.00
2023-05-10T23:19:26.456Z,100.00
2023-05-10T23:21:54.212Z,100.00
2023-05-10T23:24:22.205Z,100.00
2023-05-10T23:26:49.853Z,100.00
2023-05-10T23:29:17.703Z,100.00
2023-05-10T23:31:49.255Z,100.00
2023-05-10T23:34:17.626Z,100.00
2023-05-10T23:36:45.366Z,100.00
2023-05-10T23:39:13.618Z,100.00
2023-05-10T23:41:41.599Z,100.00
2023-05-10T23:44:09.364Z,100.00
2023-05-10T23:46:37.477Z,100.00
2023-05-10T23:49:05.294Z,100.00
2023-05-10T23:51:33.114Z,100.00
2023-05-10T23:54:00.902Z,100.00
2023-05-10T23:56:28.755Z,100.00
2023-05-10T23:58:56.622Z,100.00
